Terminal Aerodrome Forecast
Issued by NWS Boston, MA

Home | Current Version | Previous Version | Text Only | Print | Product List | Glossary On
Versions: 1 2 3 4 5 6 7 8 9 10 11 12 13 14 15 16 17 18 19 20 21 22 23
000
FTUS41 KBOX 310810 AAA
TAFBDL
TAF AMD
KBDL 310810Z 3108/0112 18004KT P6SM BKN120
     FM311000 VRB03KT P6SM SCT150
     FM311300 31008KT P6SM SCT250
     FM010500 VRB03KT P6SM SKC=

USA.gov is the U.S. government's official web portal to all federal, state and local government web resources and services.